createdAt,value
2023-11-30T00:00:44.750Z,57.00
2023-11-30T00:03:12.280Z,55.10
2023-11-30T00:05:39.790Z,53.30
2023-11-30T00:08:07.116Z,48.80
2023-11-30T00:10:34.490Z,43.70
2023-11-30T00:13:01.866Z,48.80
2023-11-30T00:15:29.746Z,58.90
2023-11-30T00:17:57.203Z,50.80
2023-11-30T00:20:24.808Z,48.10
2023-11-30T00:22:52.260Z,43.60
2023-11-30T00:25:19.755Z,48.80
2023-11-30T00:27:47.092Z,52.80
2023-11-30T00:30:15.079Z,51.40
2023-11-30T00:32:42.523Z,54.20
2023-11-30T00:35:09.964Z,52.00
2023-11-30T00:37:38.842Z,53.10
2023-11-30T00:40:07.162Z,54.90
2023-11-30T00:42:34.838Z,50.10
2023-11-30T00:45:02.403Z,48.60
2023-11-30T00:47:29.861Z,48.90
2023-11-30T00:49:57.354Z,52.40
2023-11-30T00:52:24.757Z,50.30
2023-11-30T00:54:52.154Z,51.80
2023-11-30T00:57:19.596Z,50.50
2023-11-30T00:59:47.291Z,56.30
2023-11-30T01:02:15.086Z,49.40
2023-11-30T01:04:43.448Z,53.90
2023-11-30T01:07:10.915Z,58.30
2023-11-30T01:09:40.259Z,53.10
2023-11-30T01:12:07.852Z,50.10
2023-11-30T01:14:35.296Z,54.30
2023-11-30T01:17:02.919Z,49.10
2023-11-30T01:19:30.285Z,43.40
2023-11-30T01:21:57.941Z,39.10
2023-11-30T01:24:25.824Z,38.40
2023-11-30T01:26:53.351Z,46.20
2023-11-30T01:29:20.682Z,41.70
2023-11-30T01:31:48.095Z,40.90
2023-11-30T01:34:15.464Z,40.50
2023-11-30T01:36:42.848Z,41.80
2023-11-30T01:39:10.428Z,40.20
2023-11-30T01:41:37.806Z,38.00
2023-11-30T01:44:05.359Z,46.10
2023-11-30T01:46:40.312Z,48.70
2023-11-30T01:49:10.270Z,43.90
2023-11-30T01:51:39.354Z,40.20
2023-11-30T01:54:07.062Z,42.50
2023-11-30T01:56:34.558Z,39.40
2023-11-30T01:59:02.072Z,36.40
2023-11-30T02:01:29.433Z,36.00
2023-11-30T02:03:58.008Z,41.50
2023-11-30T02:06:25.450Z,35.60
2023-11-30T02:08:52.928Z,37.10
2023-11-30T02:11:20.268Z,38.10
2023-11-30T02:13:47.645Z,39.90
2023-11-30T02:16:15.070Z,41.70
2023-11-30T02:18:42.534Z,42.10
2023-11-30T02:24:03.198Z,53.20
2023-11-30T02:26:30.793Z,48.10
2023-11-30T02:28:58.105Z,98.80
2023-11-30T02:31:25.474Z,44.60
2023-11-30T02:33:52.976Z,62.90
2023-11-30T02:36:20.405Z,48.90
2023-11-30T02:38:47.856Z,72.20
2023-11-30T02:41:17.473Z,51.10
2023-11-30T02:43:44.849Z,48.20
2023-11-30T02:46:12.452Z,49.70
2023-11-30T02:48:39.930Z,42.40
2023-11-30T02:51:07.607Z,45.50
2023-11-30T02:53:35.173Z,43.70
2023-11-30T02:56:02.614Z,36.80
2023-11-30T02:58:29.962Z,35.40
2023-11-30T03:00:58.406Z,36.30
2023-11-30T03:03:26.310Z,40.60
2023-11-30T03:05:53.858Z,42.20
2023-11-30T03:08:21.226Z,42.10
2023-11-30T03:10:48.616Z,40.60
2023-11-30T03:13:15.939Z,41.20
2023-11-30T03:15:47.601Z,38.30
2023-11-30T03:18:15.597Z,36.80
2023-11-30T03:20:43.466Z,34.90
2023-11-30T03:23:10.819Z,34.80
2023-11-30T03:25:40.928Z,35.00
2023-11-30T03:28:08.494Z,38.30
2023-11-30T03:30:36.036Z,35.70
2023-11-30T03:33:03.769Z,36.30
2023-11-30T03:35:31.233Z,39.50
2023-11-30T03:37:58.634Z,37.20
2023-11-30T03:40:26.170Z,36.10
2023-11-30T03:42:53.550Z,37.30
2023-11-30T03:45:23.169Z,37.00
2023-11-30T03:47:50.688Z,37.60
2023-11-30T03:50:18.157Z,33.90
2023-11-30T03:52:45.534Z,33.70
2023-11-30T03:55:13.173Z,41.80
2023-11-30T03:57:40.564Z,43.20
2023-11-30T04:00:13.566Z,44.50
2023-11-30T04:02:42.129Z,43.60
2023-11-30T04:05:11.840Z,41.70
2023-11-30T04:07:40.466Z,40.70
2023-11-30T04:10:08.645Z,41.20
2023-11-30T04:12:36.081Z,38.10
2023-11-30T04:15:05.481Z,34.50
2023-11-30T04:17:33.019Z,37.50
2023-11-30T04:20:01.570Z,38.50
2023-11-30T04:22:29.314Z,41.10
2023-11-30T04:24:56.638Z,41.60
2023-11-30T04:27:24.034Z,43.10
2023-11-30T04:29:51.698Z,41.20
2023-11-30T04:32:19.312Z,40.10
2023-11-30T04:34:46.691Z,41.40
2023-11-30T04:37:14.486Z,39.40
2023-11-30T04:39:41.909Z,40.80
2023-11-30T04:42:09.299Z,39.50
2023-11-30T04:44:36.742Z,41.80
2023-11-30T04:47:04.211Z,37.30
2023-11-30T04:49:31.549Z,36.00
2023-11-30T04:51:58.886Z,36.90
2023-11-30T04:54:26.352Z,37.20
2023-11-30T04:56:53.820Z,42.40
2023-11-30T04:59:21.268Z,39.30
2023-11-30T05:01:48.980Z,37.60
2023-11-30T05:04:16.548Z,39.40
2023-11-30T05:06:43.990Z,38.80
2023-11-30T05:09:11.745Z,39.40
2023-11-30T05:11:39.086Z,40.00
2023-11-30T05:14:06.511Z,41.10
2023-11-30T05:16:34.221Z,50.30
2023-11-30T05:19:01.608Z,46.10
2023-11-30T05:21:28.978Z,42.30
2023-11-30T05:23:56.686Z,43.80
2023-11-30T05:26:25.120Z,43.60
2023-11-30T05:28:53.473Z,41.20
2023-11-30T05:31:21.070Z,44.00
2023-11-30T05:33:48.503Z,43.40
2023-11-30T05:36:15.837Z,40.20
2023-11-30T05:38:43.253Z,43.20
2023-11-30T05:41:10.597Z,38.50
2023-11-30T05:43:38.357Z,44.30
2023-11-30T05:46:06.512Z,49.20
2023-11-30T05:48:35.047Z,61.80
2023-11-30T05:51:02.544Z,58.00
2023-11-30T05:53:30.246Z,56.70
2023-11-30T05:55:57.578Z,54.90
2023-11-30T05:58:24.949Z,54.60
2023-11-30T06:00:52.618Z,51.20
2023-11-30T06:03:20.087Z,52.70
2023-11-30T06:05:47.567Z,51.30
2023-11-30T06:08:15.180Z,53.60
2023-11-30T06:10:42.619Z,53.40
2023-11-30T06:13:10.252Z,51.60
2023-11-30T06:15:37.881Z,51.20
2023-11-30T06:18:05.468Z,52.90
2023-11-30T06:20:32.876Z,50.90
2023-11-30T06:23:00.294Z,52.30
2023-11-30T06:25:27.629Z,51.40
2023-11-30T06:27:54.931Z,49.10
2023-11-30T06:30:22.302Z,46.00
2023-11-30T06:32:50.000Z,49.80
2023-11-30T06:36:25.464Z,51.60
2023-11-30T06:38:52.939Z,53.10
2023-11-30T06:41:20.287Z,54.00
2023-11-30T06:43:47.800Z,56.60
2023-11-30T06:46:24.464Z,82.80
2023-11-30T06:48:53.738Z,57.00
2023-11-30T06:51:21.160Z,52.20
2023-11-30T06:53:48.569Z,58.10
2023-11-30T06:56:16.131Z,52.90
2023-11-30T06:58:43.559Z,59.90
2023-11-30T07:01:11.100Z,57.40
2023-11-30T07:03:42.754Z,50.90
2023-11-30T07:06:11.310Z,49.00
2023-11-30T07:08:38.830Z,52.60
2023-11-30T07:11:11.744Z,57.40
2023-11-30T07:13:39.371Z,57.30
2023-11-30T07:16:07.896Z,57.90
2023-11-30T07:18:35.302Z,56.00
2023-11-30T07:21:03.133Z,55.40
2023-11-30T07:23:30.451Z,53.10
2023-11-30T07:25:59.952Z,54.40
2023-11-30T07:28:27.544Z,52.30
2023-11-30T07:30:54.907Z,51.40
2023-11-30T07:33:22.532Z,48.40
2023-11-30T07:35:49.912Z,48.90
2023-11-30T07:38:17.301Z,55.80
2023-11-30T07:40:44.641Z,57.30
2023-11-30T07:43:12.996Z,56.60
2023-11-30T07:45:40.396Z,60.50
2023-11-30T07:48:07.858Z,61.60
2023-11-30T07:50:35.673Z,60.70
2023-11-30T07:53:05.358Z,55.10
2023-11-30T07:55:32.886Z,59.10
2023-11-30T07:58:00.259Z,54.60
2023-11-30T08:00:27.622Z,52.60
2023-11-30T08:02:56.035Z,55.80
2023-11-30T08:05:25.086Z,54.90
2023-11-30T08:07:53.434Z,54.70
2023-11-30T08:10:20.965Z,54.30
2023-11-30T08:12:48.303Z,52.70
2023-11-30T08:15:15.720Z,55.20
2023-11-30T08:17:43.648Z,58.90
2023-11-30T08:20:15.346Z,61.80
2023-11-30T08:22:42.814Z,59.90
2023-11-30T08:25:13.166Z,59.20
2023-11-30T08:27:40.608Z,63.30
2023-11-30T08:30:10.977Z,62.20
2023-11-30T08:32:38.802Z,60.90
2023-11-30T08:35:07.372Z,60.20
2023-11-30T08:37:34.833Z,62.70
2023-11-30T08:40:02.505Z,59.00
2023-11-30T08:42:30.186Z,60.80
2023-11-30T08:44:57.530Z,59.50
2023-11-30T08:47:25.796Z,58.90
2023-11-30T08:49:53.397Z,56.90
2023-11-30T08:52:20.774Z,59.00
2023-11-30T08:54:48.460Z,59.60
2023-11-30T08:57:16.016Z,59.90
2023-11-30T08:59:44.925Z,60.60
2023-11-30T09:02:12.412Z,66.70
2023-11-30T09:04:40.026Z,61.30
2023-11-30T09:07:07.755Z,58.60
2023-11-30T09:09:35.177Z,57.20
2023-11-30T09:12:03.669Z,59.10
2023-11-30T09:14:32.121Z,57.30
2023-11-30T09:17:02.707Z,55.20
2023-11-30T09:19:30.280Z,54.20
2023-11-30T09:21:58.399Z,54.20
2023-11-30T09:24:26.118Z,52.40
2023-11-30T09:26:54.478Z,53.20
2023-11-30T09:29:22.000Z,52.10
2023-11-30T09:31:49.443Z,54.30
2023-11-30T09:34:16.959Z,51.40
2023-11-30T09:36:44.630Z,52.00
2023-11-30T09:39:15.820Z,52.20
2023-11-30T09:41:43.352Z,51.90
2023-11-30T09:44:10.789Z,50.30
2023-11-30T09:46:40.036Z,49.90
2023-11-30T09:49:10.080Z,51.40
2023-11-30T09:51:38.249Z,51.40
2023-11-30T09:54:06.025Z,61.30
2023-11-30T09:56:33.629Z,59.30
2023-11-30T09:59:01.021Z,54.20
2023-11-30T10:01:28.462Z,54.90
2023-11-30T10:03:56.251Z,54.90
2023-11-30T10:06:23.812Z,54.30
2023-11-30T10:08:51.232Z,54.90
2023-11-30T10:11:21.109Z,54.00
2023-11-30T10:13:48.682Z,53.90
2023-11-30T10:16:16.730Z,52.60
2023-11-30T10:18:44.461Z,52.50
2023-11-30T10:21:11.970Z,49.60
2023-11-30T10:23:39.534Z,48.50
2023-11-30T10:26:07.393Z,48.40
2023-11-30T10:28:35.144Z,47.10
2023-11-30T10:31:04.264Z,49.10
2023-11-30T10:33:34.275Z,48.00
2023-11-30T10:36:05.984Z,48.80
2023-11-30T10:38:34.396Z,50.20
2023-11-30T10:41:08.091Z,48.60
2023-11-30T10:43:37.302Z,46.50
2023-11-30T10:46:05.690Z,47.80
2023-11-30T10:48:33.385Z,45.60
2023-11-30T10:51:01.837Z,45.20
2023-11-30T10:53:32.397Z,43.50
2023-11-30T10:55:59.812Z,44.10
2023-11-30T10:58:27.592Z,47.40
2023-11-30T11:01:01.022Z,48.60
2023-11-30T11:03:29.479Z,48.40
2023-11-30T11:05:57.528Z,47.50
2023-11-30T11:08:25.328Z,51.30
2023-11-30T11:10:53.020Z,49.70
2023-11-30T11:13:25.408Z,47.20
2023-11-30T11:16:04.327Z,49.30
2023-11-30T11:18:32.720Z,45.00
2023-11-30T11:21:00.783Z,49.10
2023-11-30T11:23:35.696Z,51.10
2023-11-30T11:26:05.907Z,50.90
2023-11-30T11:28:33.337Z,53.00
2023-11-30T11:31:00.857Z,51.60
2023-11-30T11:33:29.342Z,52.10
2023-11-30T11:35:57.233Z,52.70
2023-11-30T11:38:25.100Z,55.20
2023-11-30T11:40:54.813Z,56.80
2023-11-30T11:43:22.296Z,59.30
2023-11-30T11:45:49.820Z,58.10
2023-11-30T11:48:17.435Z,58.80
2023-11-30T11:50:45.019Z,58.20
2023-11-30T11:53:12.502Z,58.00
2023-11-30T11:55:40.007Z,56.50
2023-11-30T11:58:07.418Z,57.00
2023-11-30T12:00:35.123Z,57.60
2023-11-30T12:03:07.069Z,55.20
2023-11-30T12:05:34.754Z,56.30
2023-11-30T12:08:02.585Z,60.80
2023-11-30T12:10:33.959Z,60.00
2023-11-30T12:13:02.658Z,57.50
2023-11-30T12:15:30.665Z,54.30
2023-11-30T12:17:58.507Z,57.10
2023-11-30T12:20:26.162Z,53.50
2023-11-30T12:22:53.648Z,52.80
2023-11-30T12:25:21.386Z,54.30
2023-11-30T12:27:49.047Z,54.30
2023-11-30T12:30:16.625Z,55.30
2023-11-30T12:32:44.144Z,57.10
2023-11-30T12:35:11.711Z,60.20
2023-11-30T12:37:39.432Z,61.00
2023-11-30T12:40:11.508Z,59.70
2023-11-30T12:42:39.124Z,64.50
2023-11-30T12:45:08.532Z,71.00
2023-11-30T12:47:36.068Z,74.40
2023-11-30T12:50:06.164Z,78.70
2023-11-30T12:52:33.643Z,78.00
2023-11-30T12:55:01.712Z,79.40
2023-11-30T12:57:29.656Z,74.70
2023-11-30T12:59:57.112Z,72.10
2023-11-30T13:02:24.671Z,72.30
2023-11-30T13:04:52.774Z,71.70
2023-11-30T13:07:20.243Z,72.90
2023-11-30T13:09:47.796Z,68.90
2023-11-30T13:12:15.467Z,62.40
2023-11-30T13:14:42.909Z,61.40
2023-11-30T13:17:10.450Z,60.50
2023-11-30T13:19:38.149Z,57.80
2023-11-30T13:22:06.564Z,58.50
2023-11-30T13:24:34.102Z,65.80
2023-11-30T13:27:01.761Z,65.30
2023-11-30T13:29:29.177Z,67.80
2023-11-30T13:31:56.625Z,65.20
2023-11-30T13:34:24.077Z,64.20
2023-11-30T13:36:51.707Z,64.40
2023-11-30T13:39:19.145Z,63.80
2023-11-30T13:41:46.708Z,62.40
2023-11-30T13:44:14.957Z,59.20
2023-11-30T13:46:43.062Z,57.10
2023-11-30T13:49:14.833Z,58.00
2023-11-30T13:51:42.646Z,57.90
2023-11-30T13:54:10.312Z,55.00
2023-11-30T13:56:39.234Z,60.20
2023-11-30T13:59:07.097Z,54.90
2023-11-30T14:01:35.280Z,51.50
2023-11-30T14:04:05.302Z,49.10
2023-11-30T14:06:33.426Z,45.70
2023-11-30T14:09:00.896Z,42.60
2023-11-30T14:11:28.591Z,44.10
2023-11-30T14:13:56.035Z,45.40
2023-11-30T14:16:23.667Z,45.10
2023-11-30T14:18:51.770Z,46.90
2023-11-30T14:21:19.796Z,34.70
2023-11-30T14:23:48.132Z,23.80
2023-11-30T14:26:16.469Z,18.10
2023-11-30T14:28:49.162Z,18.10
2023-11-30T14:31:19.804Z,15.70
2023-11-30T14:33:48.620Z,19.20
2023-11-30T14:36:16.614Z,18.20
2023-11-30T14:38:45.103Z,16.90
2023-11-30T14:41:12.582Z,15.80
2023-11-30T14:43:40.176Z,14.80
2023-11-30T14:46:07.823Z,15.60
2023-11-30T14:48:35.391Z,14.70
2023-11-30T14:51:03.728Z,16.70
2023-11-30T14:53:31.686Z,15.50
2023-11-30T14:55:59.207Z,14.30
2023-11-30T14:58:26.683Z,13.80
2023-11-30T15:00:54.255Z,13.50
2023-11-30T15:03:22.082Z,15.30
2023-11-30T15:05:49.643Z,15.60
2023-11-30T15:08:18.467Z,13.90
2023-11-30T15:10:49.620Z,12.70
2023-11-30T15:13:18.165Z,9.40
2023-11-30T15:15:46.295Z,13.80
2023-11-30T15:18:13.916Z,12.90
2023-11-30T15:20:43.737Z,13.40
2023-11-30T15:23:11.125Z,15.70
2023-11-30T15:25:39.869Z,14.20
2023-11-30T15:28:11.284Z,14.70
2023-11-30T15:30:39.510Z,15.70
2023-11-30T15:33:08.415Z,16.70
2023-11-30T15:35:37.157Z,15.20
2023-11-30T15:38:05.524Z,14.90
2023-11-30T15:40:33.101Z,15.40
2023-11-30T15:43:00.654Z,15.90
2023-11-30T15:45:28.689Z,15.30
2023-11-30T15:47:56.376Z,20.10
2023-11-30T15:50:25.892Z,19.50
2023-11-30T15:52:53.430Z,18.10
2023-11-30T15:55:20.961Z,17.00
2023-11-30T15:57:49.030Z,15.80
2023-11-30T16:00:17.545Z,16.50
2023-11-30T16:02:48.425Z,16.90
2023-11-30T16:05:16.490Z,15.00
2023-11-30T16:07:44.538Z,14.50
2023-11-30T16:10:12.382Z,13.20
2023-11-30T16:12:40.080Z,12.40
2023-11-30T16:15:09.448Z,12.70
2023-11-30T16:17:36.960Z,12.60
2023-11-30T16:20:11.355Z,12.10
2023-11-30T16:22:40.391Z,13.40
2023-11-30T16:25:09.020Z,12.20
2023-11-30T16:27:36.534Z,12.70
2023-11-30T16:30:05.430Z,13.00
2023-11-30T16:32:33.222Z,12.90
2023-11-30T16:35:04.592Z,11.10
2023-11-30T16:37:32.164Z,11.20
2023-11-30T16:39:59.971Z,11.60
2023-11-30T16:42:29.343Z,11.30
2023-11-30T16:44:57.280Z,11.80
2023-11-30T16:47:25.108Z,11.50
2023-11-30T16:49:52.775Z,11.70
2023-11-30T16:52:20.329Z,11.60
2023-11-30T16:54:48.109Z,11.30
2023-11-30T16:57:15.920Z,12.60
2023-11-30T16:59:43.522Z,10.90
2023-11-30T17:02:11.527Z,11.70
2023-11-30T17:04:39.359Z,13.40
2023-11-30T17:07:07.128Z,14.30
2023-11-30T17:09:34.766Z,13.40
2023-11-30T17:12:02.497Z,13.20
2023-11-30T17:14:29.978Z,14.20
2023-11-30T17:17:02.216Z,13.50
2023-11-30T17:19:29.820Z,13.70
2023-11-30T17:21:57.497Z,12.90
2023-11-30T17:24:25.576Z,12.70
2023-11-30T17:26:57.367Z,13.70
2023-11-30T17:29:24.953Z,12.30
2023-11-30T17:31:52.859Z,12.50
2023-11-30T17:34:20.721Z,12.70
2023-11-30T17:36:48.977Z,11.80
2023-11-30T17:39:17.821Z,12.20
2023-11-30T17:41:45.889Z,11.60
2023-11-30T17:44:13.517Z,13.30
2023-11-30T17:46:42.919Z,14.70
2023-11-30T17:49:11.218Z,13.90
2023-11-30T17:51:39.183Z,13.70
2023-11-30T17:54:06.805Z,14.90
2023-11-30T17:56:34.391Z,16.10
2023-11-30T17:59:01.887Z,14.70
2023-11-30T18:01:30.263Z,14.80
2023-11-30T18:03:57.962Z,15.20
2023-11-30T18:06:26.945Z,14.40
2023-11-30T18:08:55.482Z,14.30
2023-11-30T18:11:23.247Z,13.20
2023-11-30T18:13:51.093Z,12.60
2023-11-30T18:16:19.055Z,13.00
2023-11-30T18:18:47.394Z,12.70
2023-11-30T18:21:15.229Z,12.30
2023-11-30T18:23:42.892Z,12.30
2023-11-30T18:26:10.835Z,13.40
2023-11-30T18:28:38.500Z,14.00
2023-11-30T18:31:16.313Z,15.00
2023-11-30T18:33:49.880Z,13.90
2023-11-30T18:36:17.808Z,13.50
2023-11-30T18:38:50.646Z,14.10
2023-11-30T18:41:20.837Z,13.90
2023-11-30T18:43:49.525Z,13.50
2023-11-30T18:46:17.630Z,13.90
2023-11-30T18:48:46.850Z,14.50
2023-11-30T18:51:14.737Z,15.00
2023-11-30T18:56:06.342Z,15.30
2023-11-30T18:58:33.997Z,14.50
2023-11-30T19:01:01.808Z,16.60
2023-11-30T19:03:29.540Z,16.90
2023-11-30T19:05:57.729Z,17.70
2023-11-30T19:08:25.518Z,16.20
2023-11-30T19:10:53.367Z,16.20
2023-11-30T19:13:21.090Z,16.40
2023-11-30T19:15:51.314Z,15.50
2023-11-30T19:18:19.137Z,16.00
2023-11-30T19:20:46.816Z,17.60
2023-11-30T19:23:14.620Z,18.80
2023-11-30T19:25:44.233Z,28.60
2023-11-30T19:28:12.078Z,30.00
2023-11-30T19:30:40.181Z,21.70
2023-11-30T19:33:08.250Z,27.50
2023-11-30T19:35:36.923Z,28.00
2023-11-30T19:38:04.802Z,19.20
2023-11-30T19:40:32.679Z,25.10
2023-11-30T19:43:00.580Z,28.50
2023-11-30T19:45:28.500Z,32.50
2023-11-30T19:47:56.377Z,32.40
2023-11-30T19:50:24.612Z,28.00
2023-11-30T19:52:52.385Z,24.40
2023-11-30T19:55:20.246Z,21.70
2023-11-30T19:57:48.274Z,20.60
2023-11-30T20:00:16.689Z,23.80
2023-11-30T20:02:44.609Z,24.70
2023-11-30T20:05:13.882Z,31.30
2023-11-30T20:07:41.979Z,34.10
2023-11-30T20:10:12.157Z,35.00
2023-11-30T20:12:42.707Z,31.60
2023-11-30T20:15:10.682Z,29.00
2023-11-30T20:17:38.968Z,32.60
2023-11-30T20:20:07.625Z,30.60
2023-11-30T20:22:35.339Z,31.30
2023-11-30T20:25:03.640Z,28.30
2023-11-30T20:27:31.579Z,28.50
2023-11-30T20:30:00.258Z,44.10
2023-11-30T20:32:28.128Z,43.70
2023-11-30T20:34:55.835Z,31.80
2023-11-30T20:37:23.704Z,32.90
2023-11-30T20:39:51.393Z,26.90
2023-11-30T20:42:19.042Z,30.30
2023-11-30T20:44:52.799Z,34.30
2023-11-30T20:47:30.086Z,32.60
2023-11-30T20:49:57.793Z,47.60
2023-11-30T20:52:25.326Z,35.00
2023-11-30T20:54:53.376Z,32.10
2023-11-30T20:57:20.884Z,33.50
2023-11-30T20:59:48.348Z,33.40
2023-11-30T21:05:01.366Z,38.10
2023-11-30T21:07:28.985Z,35.90
2023-11-30T21:09:57.078Z,33.10
2023-11-30T21:12:24.820Z,33.50
2023-11-30T21:14:52.422Z,32.70
2023-11-30T21:17:22.264Z,33.20
2023-11-30T21:19:49.790Z,30.90
2023-11-30T21:22:17.462Z,30.80
2023-11-30T21:24:46.225Z,27.10
2023-11-30T21:27:14.370Z,26.20
2023-11-30T21:29:41.877Z,23.60
2023-11-30T21:32:10.371Z,24.10
2023-11-30T21:34:38.567Z,22.10
2023-11-30T21:37:06.184Z,24.00
2023-11-30T21:39:35.335Z,26.90
2023-11-30T21:42:04.076Z,26.50
2023-11-30T21:44:31.636Z,25.70
2023-11-30T21:46:59.234Z,25.60
2023-11-30T21:49:26.694Z,23.70
2023-11-30T21:51:54.625Z,23.30
2023-11-30T21:54:22.386Z,22.60
2023-11-30T21:56:50.340Z,27.70
2023-11-30T21:59:18.954Z,27.10
2023-11-30T22:01:47.031Z,30.10
2023-11-30T22:04:14.905Z,29.40
2023-11-30T22:06:44.172Z,27.10
2023-11-30T22:09:11.657Z,26.00
2023-11-30T22:11:44.150Z,23.50
2023-11-30T22:14:12.007Z,22.50
2023-11-30T22:16:41.733Z,23.00
2023-11-30T22:19:09.948Z,21.20
2023-11-30T22:21:37.620Z,22.70
2023-11-30T22:24:05.699Z,22.60
2023-11-30T22:26:33.137Z,22.00
2023-11-30T22:29:02.198Z,21.00
2023-11-30T22:31:34.719Z,23.70
2023-11-30T22:34:02.433Z,22.40
2023-11-30T22:36:30.103Z,22.80
2023-11-30T22:38:58.625Z,21.70
2023-11-30T22:41:26.314Z,22.50
2023-11-30T22:43:54.151Z,21.90
2023-11-30T22:46:21.952Z,22.50
2023-11-30T22:48:50.353Z,23.60
2023-11-30T22:51:18.594Z,23.20
2023-11-30T22:53:46.743Z,23.00
2023-11-30T22:56:21.362Z,24.10
2023-11-30T22:58:50.106Z,23.70
2023-11-30T23:01:18.217Z,23.00
2023-11-30T23:03:46.206Z,23.40
2023-11-30T23:06:14.705Z,23.20
2023-11-30T23:08:42.745Z,24.80
2023-11-30T23:11:10.377Z,25.20
2023-11-30T23:13:37.979Z,23.20
2023-11-30T23:16:06.117Z,21.80
2023-11-30T23:18:33.655Z,28.00
2023-11-30T23:21:01.417Z,37.90
2023-11-30T23:23:29.170Z,26.30
2023-11-30T23:25:56.693Z,23.30
2023-11-30T23:28:24.357Z,21.60
2023-11-30T23:30:51.882Z,21.50
2023-11-30T23:33:19.573Z,21.30
2023-11-30T23:35:47.564Z,20.00
2023-11-30T23:38:14.982Z,21.50
2023-11-30T23:40:42.399Z,22.50
2023-11-30T23:43:10.219Z,20.80
2023-11-30T23:45:37.789Z,22.20
2023-11-30T23:48:05.742Z,20.50
2023-11-30T23:50:33.474Z,21.10
2023-11-30T23:53:01.099Z,20.30
2023-11-30T23:55:28.566Z,21.30
2023-11-30T23:57:56.135Z,22.10
